Time;durP1;ratioP1;P1;durP2;ratioP2;P2;SDS_P1;SDS_P2;PMS_P1;PMS_P2;Temp;Humidity;BMP_temperature;BMP_pressure;BME280_temperature;BME280_humidity;BME280_pressure;Samples;Min_cycle;Max_cycle;Signal;HPM_P1;HPM_P2
2022/05/13 00:01:10;;;;;;;20.58;8.65;;;;;;;;;;5074765;28;20384;-47
2022/05/13 00:03:37;;;;;;;10.43;7.25;;;;;;;;;;5074056;28;20048;-47
2022/05/13 00:06:03;;;;;;;15.70;7.45;;;;;;;;;;5056508;28;20029;-47
2022/05/13 00:08:29;;;;;;;15.80;7.40;;;;;;;;;;5074256;28;20488;-50
2022/05/13 00:10:56;;;;;;;15.13;7.95;;;;;;;;;;5056429;28;20132;-48
2022/05/13 00:13:22;;;;;;;12.18;7.40;;;;;;;;;;5056420;28;20507;-46
2022/05/13 00:15:48;;;;;;;16.33;7.80;;;;;;;;;;5074606;28;20028;-47
2022/05/13 00:18:15;;;;;;;15.25;7.35;;;;;;;;;;5074464;28;20024;-48
2022/05/13 00:20:40;;;;;;;17.50;7.80;;;;;;;;;;5074329;28;20052;-46
2022/05/13 00:23:05;;;;;;;11.38;7.57;;;;;;;;;;5074347;28;20115;-48
2022/05/13 00:25:35;;;;;;;15.48;8.05;;;;;;;;;;5074008;28;20028;-48
2022/05/13 00:28:02;;;;;;;15.02;7.78;;;;;;;;;;5074181;28;20074;-46
2022/05/13 00:30:30;;;;;;;21.25;8.95;;;;;;;;;;5073920;28;20035;-47
2022/05/13 00:32:55;;;;;;;18.40;7.63;;;;;;;;;;5074108;28;20028;-46
2022/05/13 00:35:22;;;;;;;20.35;7.43;;;;;;;;;;5073776;28;20476;-46
2022/05/13 00:37:48;;;;;;;15.73;8.00;;;;;;;;;;5073854;28;20032;-48
2022/05/13 00:40:15;;;;;;;12.90;7.82;;;;;;;;;;5073709;28;20016;-46
2022/05/13 00:42:41;;;;;;;18.92;8.25;;;;;;;;;;5073748;28;20503;-46
2022/05/13 00:45:07;;;;;;;14.75;7.63;;;;;;;;;;5073919;28;20029;-46
2022/05/13 00:47:33;;;;;;;14.18;7.57;;;;;;;;;;5073565;28;20028;-46
2022/05/13 00:50:00;;;;;;;16.90;8.50;;;;;;;;;;5073789;28;20365;-45
2022/05/13 00:52:27;;;;;;;15.20;8.55;;;;;;;;;;5073429;28;20031;-47
2022/05/13 00:54:54;;;;;;;17.52;7.53;;;;;;;;;;5073422;28;20472;-47
2022/05/13 00:57:21;;;;;;;16.48;8.27;;;;;;;;;;5073447;28;20123;-45
2022/05/13 00:59:50;;;;;;;20.55;8.07;;;;;;;;;;5073571;28;20025;-45
2022/05/13 01:02:16;;;;;;;15.23;8.30;;;;;;;;;;5073197;28;20388;-48
2022/05/13 01:04:42;;;;;;;17.88;8.43;;;;;;;;;;5073088;28;20067;-45
2022/05/13 01:07:11;;;;;;;13.57;8.02;;;;;;;;;;5073383;28;20042;-46
2022/05/13 01:09:41;;;;;;;14.50;8.77;;;;;;;;;;5073413;28;20099;-46
2022/05/13 01:12:10;;;;;;;;;;;;;;;;;;5073843;28;20025;-46
2022/05/13 01:14:40;;;;;;;12.95;8.55;;;;;;;;;;5073309;28;19968;-45
2022/05/13 01:20:46;;;;;;;11.30;7.30;;;;;;;;;;4991404;28;19913;-45
2022/05/13 01:23:24;;;;;;;17.33;8.48;;;;;;;;;;4991470;28;20113;-46
2022/05/13 01:25:53;;;;;;;13.98;7.75;;;;;;;;;;5040071;28;20116;-46
2022/05/13 01:28:23;;;;;;;17.98;8.57;;;;;;;;;;5073063;28;20025;-46
2022/05/13 01:30:52;;;;;;;15.07;7.70;;;;;;;;;;5073158;28;20028;-46
2022/05/13 01:33:18;;;;;;;17.90;7.82;;;;;;;;;;5072982;28;20031;-46
2022/05/13 01:35:46;;;;;;;11.23;6.88;;;;;;;;;;5073047;28;20099;-46
2022/05/13 01:38:13;;;;;;;13.85;7.90;;;;;;;;;;5073008;28;20534;-46
2022/05/13 01:40:39;;;;;;;13.52;8.43;;;;;;;;;;5073013;28;20021;-46
2022/05/13 01:43:05;;;;;;;13.45;8.77;;;;;;;;;;5072627;28;20043;-46
2022/05/13 01:45:31;;;;;;;19.08;9.88;;;;;;;;;;5072701;28;20021;-46
2022/05/13 01:47:56;;;;;;;13.85;8.50;;;;;;;;;;5071875;28;20025;-47
2022/05/13 01:50:23;;;;;;;12.57;8.35;;;;;;;;;;5072845;28;20074;-46
2022/05/13 01:52:49;;;;;;;15.10;8.70;;;;;;;;;;5055099;28;20102;-46
2022/05/13 01:55:15;;;;;;;15.00;9.05;;;;;;;;;;5072815;28;20103;-46
2022/05/13 01:57:41;;;;;;;16.90;8.90;;;;;;;;;;5072467;28;20029;-46
2022/05/13 02:00:07;;;;;;;16.23;9.55;;;;;;;;;;5072743;28;20021;-46
2022/05/13 02:03:44;;;;;;;16.13;9.73;;;;;;;;;;5072201;28;20530;-46
2022/05/13 02:05:17;;;;;;;18.35;8.95;;;;;;;;;;5072227;28;20032;-46
2022/05/13 02:07:43;;;;;;;17.65;10.90;;;;;;;;;;5072322;28;20487;-46
2022/05/13 02:10:08;;;;;;;12.55;8.98;;;;;;;;;;5072418;28;20492;-46
2022/05/13 02:12:34;;;;;;;14.10;9.13;;;;;;;;;;5072311;28;20016;-46
2022/05/13 02:14:59;;;;;;;14.70;8.40;;;;;;;;;;5072616;28;20024;-47
2022/05/13 02:17:24;;;;;;;15.48;7.93;;;;;;;;;;5072237;28;20392;-46
2022/05/13 02:19:50;;;;;;;11.25;7.47;;;;;;;;;;5072270;28;20107;-46
2022/05/13 02:22:15;;;;;;;16.85;7.85;;;;;;;;;;5072229;28;20099;-46
2022/05/13 02:24:41;;;;;;;10.27;6.95;;;;;;;;;;5072213;28;20025;-45
2022/05/13 02:27:06;;;;;;;13.73;9.30;;;;;;;;;;5072352;28;20029;-46
2022/05/13 02:29:32;;;;;;;15.13;9.05;;;;;;;;;;5072446;28;20025;-46
2022/05/13 02:31:57;;;;;;;14.23;9.02;;;;;;;;;;5072330;28;20534;-48
2022/05/13 02:34:22;;;;;;;15.00;9.15;;;;;;;;;;5072187;28;20032;-46
2022/05/13 02:36:48;;;;;;;15.48;9.00;;;;;;;;;;5072351;28;20111;-49
2022/05/13 02:39:13;;;;;;;17.48;9.02;;;;;;;;;;5054199;28;20024;-47
2022/05/13 02:41:39;;;;;;;13.15;8.98;;;;;;;;;;5072260;28;20021;-48
2022/05/13 02:44:05;;;;;;;14.68;9.57;;;;;;;;;;5072020;28;20476;-48
2022/05/13 02:46:32;;;;;;;15.25;8.95;;;;;;;;;;5072152;28;20028;-49
2022/05/13 02:48:58;;;;;;;13.30;8.85;;;;;;;;;;5072259;28;20415;-49
2022/05/13 02:51:24;;;;;;;12.35;8.57;;;;;;;;;;5072194;28;20031;-48
2022/05/13 02:53:50;;;;;;;14.48;8.23;;;;;;;;;;5072196;28;20032;-49
2022/05/13 02:56:16;;;;;;;10.30;7.85;;;;;;;;;;5071831;28;20040;-50
2022/05/13 02:58:42;;;;;;;12.98;7.93;;;;;;;;;;5072123;28;20028;-48
2022/05/13 03:01:09;;;;;;;17.42;8.20;;;;;;;;;;5075396;28;20030;-45
2022/05/13 03:03:39;;;;;;;11.55;9.02;;;;;;;;;;5075382;28;20098;-48
2022/05/13 03:06:04;;;;;;;14.40;8.47;;;;;;;;;;5075540;28;20054;-47
2022/05/13 03:08:30;;;;;;;13.63;8.50;;;;;;;;;;5075408;28;20024;-49
2022/05/13 03:10:55;;;;;;;12.88;8.40;;;;;;;;;;5075652;28;20077;-48
2022/05/13 03:13:21;;;;;;;11.57;8.75;;;;;;;;;;5075740;28;20052;-48
2022/05/13 03:15:47;;;;;;;13.52;8.98;;;;;;;;;;5075626;28;20461;-48
2022/05/13 03:18:14;;;;;;;16.15;9.30;;;;;;;;;;5075564;28;20028;-48
2022/05/13 03:20:40;;;;;;;13.18;9.43;;;;;;;;;;5075526;28;20024;-49
2022/05/13 03:23:05;;;;;;;13.65;8.80;;;;;;;;;;5075545;28;20028;-48
2022/05/13 03:25:31;;;;;;;14.68;9.60;;;;;;;;;;5075161;28;20154;-48
2022/05/13 03:27:57;;;;;;;14.82;9.23;;;;;;;;;;5075419;28;20024;-48
2022/05/13 03:30:24;;;;;;;16.52;9.80;;;;;;;;;;5075131;28;20482;-50
2022/05/13 03:32:51;;;;;;;16.08;9.45;;;;;;;;;;5075378;28;20154;-48
2022/05/13 03:35:17;;;;;;;15.63;8.85;;;;;;;;;;5075362;28;20036;-48
2022/05/13 03:37:43;;;;;;;14.45;9.35;;;;;;;;;;5075059;28;20534;-48
2022/05/13 03:40:10;;;;;;;13.93;9.35;;;;;;;;;;5057370;28;20029;-47
2022/05/13 03:42:37;;;;;;;15.75;8.98;;;;;;;;;;5075119;28;20032;-49
2022/05/13 03:45:05;;;;;;;17.00;9.82;;;;;;;;;;5075115;28;20059;-49
2022/05/13 03:47:32;;;;;;;13.25;8.85;;;;;;;;;;5074757;28;20028;-48
2022/05/13 03:49:58;;;;;;;17.40;9.55;;;;;;;;;;5075034;28;20020;-48
2022/05/13 03:52:23;;;;;;;14.13;8.95;;;;;;;;;;5040176;28;20028;-50
2022/05/13 03:54:49;;;;;;;16.05;9.27;;;;;;;;;;5074931;28;20032;-47
2022/05/13 03:57:14;;;;;;;11.82;8.88;;;;;;;;;;5074877;28;20047;-49
2022/05/13 03:59:40;;;;;;;19.40;8.57;;;;;;;;;;5074798;28;20465;-49
2022/05/13 04:02:06;;;;;;;11.75;8.40;;;;;;;;;;5074543;28;20031;-49
2022/05/13 04:08:56;;;;;;;11.77;8.07;;;;;;;;;;5074255;28;20049;-51
2022/05/13 04:10:04;;;;;;;14.77;7.97;;;;;;;;;;5059623;28;20071;-48
2022/05/13 04:17:57;;;;;;;11.02;8.00;;;;;;;;;;5074468;28;20078;-52
2022/05/13 04:20:23;;;;;;;12.82;7.55;;;;;;;;;;5074474;28;20036;-52
2022/05/13 04:22:48;;;;;;;14.82;7.35;;;;;;;;;;5074064;28;20456;-48
2022/05/13 04:25:13;;;;;;;12.85;8.02;;;;;;;;;;5074074;28;20055;-49
2022/05/13 04:27:41;;;;;;;10.02;7.15;;;;;;;;;;5056049;28;20529;-51
2022/05/13 04:30:07;;;;;;;9.23;7.13;;;;;;;;;;5074183;28;20021;-49
2022/05/13 04:32:32;;;;;;;9.45;6.55;;;;;;;;;;5055966;28;20033;-50
2022/05/13 04:34:58;;;;;;;10.65;6.95;;;;;;;;;;5073817;28;20537;-51
2022/05/13 04:37:25;;;;;;;11.00;6.93;;;;;;;;;;5074028;28;20032;-50
2022/05/13 04:39:53;;;;;;;8.55;6.90;;;;;;;;;;5074090;28;20029;-49
2022/05/13 04:45:07;;;;;;;12.05;6.35;;;;;;;;;;5074016;28;20028;-50
2022/05/13 04:50:17;;;;;;;15.35;6.82;;;;;;;;;;5073855;28;20028;-49
2022/05/13 04:52:42;;;;;;;10.52;6.15;;;;;;;;;;5073626;28;20020;-49
2022/05/13 04:55:09;;;;;;;15.23;8.75;;;;;;;;;;5073632;28;20024;-49
2022/05/13 04:57:35;;;;;;;19.05;8.82;;;;;;;;;;5073275;28;20031;-48
2022/05/13 05:00:00;;;;;;;10.00;5.60;;;;;;;;;;5073622;28;20028;-47
2022/05/13 05:02:25;;;;;;;8.75;5.43;;;;;;;;;;5073435;28;20024;-47
2022/05/13 05:04:51;;;;;;;6.95;4.88;;;;;;;;;;5073080;28;20044;-52
2022/05/13 05:07:16;;;;;;;8.07;5.43;;;;;;;;;;5073370;28;20040;-47
2022/05/13 05:09:42;;;;;;;10.40;5.55;;;;;;;;;;5073078;28;20115;-47
2022/05/13 05:12:09;;;;;;;15.32;6.38;;;;;;;;;;5055081;28;20028;-47
2022/05/13 05:14:35;;;;;;;7.15;5.40;;;;;;;;;;5073393;28;20098;-48
2022/05/13 05:17:00;;;;;;;9.40;5.35;;;;;;;;;;5073052;28;20460;-47
2022/05/13 05:19:26;;;;;;;13.38;5.60;;;;;;;;;;5073175;28;20035;-47
2022/05/13 05:21:51;;;;;;;10.32;5.70;;;;;;;;;;5073132;28;20020;-48
2022/05/13 05:24:17;;;;;;;12.02;4.68;;;;;;;;;;5071954;28;20468;-45
2022/05/13 05:26:42;;;;;;;7.38;5.07;;;;;;;;;;5073074;28;20099;-45
2022/05/13 05:29:08;;;;;;;9.27;4.45;;;;;;;;;;5073160;28;20380;-47
2022/05/13 05:31:33;;;;;;;6.32;4.90;;;;;;;;;;5073094;28;20108;-48
2022/05/13 05:33:59;;;;;;;7.10;3.80;;;;;;;;;;5071211;28;20075;-49
2022/05/13 05:36:25;;;;;;;8.63;3.92;;;;;;;;;;5072248;28;20028;-47
2022/05/13 05:38:50;;;;;;;3.90;3.03;;;;;;;;;;5072638;28;20032;-49
2022/05/13 05:41:15;;;;;;;9.50;3.80;;;;;;;;;;5072672;28;20032;-47
2022/05/13 05:43:41;;;;;;;6.70;3.85;;;;;;;;;;5072966;28;20050;-46
2022/05/13 05:46:06;;;;;;;5.93;4.20;;;;;;;;;;5072427;28;20517;-49
2022/05/13 05:48:32;;;;;;;7.03;4.25;;;;;;;;;;5054357;28;20039;-46
2022/05/13 05:50:58;;;;;;;3.75;3.00;;;;;;;;;;5072580;28;20024;-49
2022/05/13 05:58:58;;;;;;;7.97;5.03;;;;;;;;;;5072802;28;20051;-49
2022/05/13 06:01:23;;;;;;;7.00;5.60;;;;;;;;;;5072633;28;20108;-49
2022/05/13 06:03:49;;;;;;;11.63;6.03;;;;;;;;;;5072362;28;20488;-51
2022/05/13 06:06:15;;;;;;;14.45;6.70;;;;;;;;;;5072707;28;20035;-47
2022/05/13 06:08:41;;;;;;;12.40;6.25;;;;;;;;;;5067964;28;20492;-53
2022/05/13 06:11:07;;;;;;;14.88;5.80;;;;;;;;;;5071030;28;20036;-51
2022/05/13 06:13:32;;;;;;;11.52;6.22;;;;;;;;;;5072157;28;20025;-53
2022/05/13 06:15:58;;;;;;;11.38;5.18;;;;;;;;;;5072193;28;20031;-48
2022/05/13 06:18:23;;;;;;;7.00;4.75;;;;;;;;;;5072448;28;20021;-48
2022/05/13 06:20:49;;;;;;;9.25;4.35;;;;;;;;;;5072505;28;20027;-50
2022/05/13 06:23:14;;;;;;;9.95;6.07;;;;;;;;;;5072167;28;20063;-52
2022/05/13 06:25:40;;;;;;;11.23;5.80;;;;;;;;;;5072422;28;20100;-51
2022/05/13 06:28:06;;;;;;;5.45;3.30;;;;;;;;;;5072319;28;20024;-49
2022/05/13 06:30:35;;;;;;;9.38;5.43;;;;;;;;;;5072387;28;20032;-51
2022/05/13 06:33:02;;;;;;;5.47;3.85;;;;;;;;;;5072085;28;20460;-49
2022/05/13 06:35:29;;;;;;;10.63;4.28;;;;;;;;;;5074689;28;20040;-53
2022/05/13 06:37:55;;;;;;;4.25;3.30;;;;;;;;;;5075834;28;20089;-47
2022/05/13 06:40:24;;;;;;;4.18;3.05;;;;;;;;;;5075933;28;20028;-50
2022/05/13 06:42:51;;;;;;;10.70;5.10;;;;;;;;;;5076219;28;20529;-50
2022/05/13 06:45:17;;;;;;;9.23;4.10;;;;;;;;;;5076170;28;20021;-49
2022/05/13 06:47:43;;;;;;;11.38;5.78;;;;;;;;;;5075910;28;20510;-50
2022/05/13 06:50:12;;;;;;;10.00;4.63;;;;;;;;;;5075927;28;20024;-48
2022/05/13 06:52:38;;;;;;;6.30;3.13;;;;;;;;;;5075827;28;20047;-46
2022/05/13 06:55:05;;;;;;;7.22;4.47;;;;;;;;;;5075755;28;20109;-47
2022/05/13 06:57:30;;;;;;;7.55;3.10;;;;;;;;;;5074288;28;20025;-45
2022/05/13 06:59:56;;;;;;;5.05;3.45;;;;;;;;;;5074325;28;20022;-46
2022/05/13 07:02:23;;;;;;;5.65;3.47;;;;;;;;;;5073728;28;20027;-48
2022/05/13 07:04:49;;;;;;;7.22;4.93;;;;;;;;;;5073910;28;20063;-49
2022/05/13 07:07:15;;;;;;;5.25;3.50;;;;;;;;;;5073781;28;20036;-52
2022/05/13 07:09:41;;;;;;;9.20;3.10;;;;;;;;;;5074139;28;20153;-52
2022/05/13 07:12:08;;;;;;;6.35;3.28;;;;;;;;;;5073833;28;20539;-54
2022/05/13 07:14:34;;;;;;;2.28;1.92;;;;;;;;;;5074016;28;20034;-56
2022/05/13 07:17:01;;;;;;;2.28;2.00;;;;;;;;;;5074120;28;20123;-50
2022/05/13 07:19:26;;;;;;;7.93;3.55;;;;;;;;;;5073702;28;20103;-52
2022/05/13 07:21:52;;;;;;;1.95;1.75;;;;;;;;;;5073962;28;20112;-52
2022/05/13 07:24:18;;;;;;;12.07;3.42;;;;;;;;;;5073977;28;20024;-56
2022/05/13 07:26:43;;;;;;;12.43;3.45;;;;;;;;;;5073756;28;20438;-51
2022/05/13 07:29:09;;;;;;;8.38;5.60;;;;;;;;;;5073549;28;20059;-48
2022/05/13 07:31:34;;;;;;;5.45;2.33;;;;;;;;;;5073389;28;20032;-48
2022/05/13 07:34:00;;;;;;;3.67;2.20;;;;;;;;;;5073681;28;20120;-52
2022/05/13 07:36:26;;;;;;;3.95;2.25;;;;;;;;;;5055701;28;20161;-52
2022/05/13 07:41:35;;;;;;;2.38;2.17;;;;;;;;;;5073578;28;20496;-53
2022/05/13 07:44:00;;;;;;;3.15;1.60;;;;;;;;;;5073621;28;20111;-54
2022/05/13 07:46:26;;;;;;;2.00;1.13;;;;;;;;;;5072504;28;20059;-54
2022/05/13 07:48:51;;;;;;;7.00;2.70;;;;;;;;;;5055063;28;20078;-55
2022/05/13 07:51:17;;;;;;;2.60;2.20;;;;;;;;;;5073369;28;20025;-53
2022/05/13 07:53:42;;;;;;;2.40;2.20;;;;;;;;;;5073470;28;20025;-55
2022/05/13 07:56:08;;;;;;;1.42;1.33;;;;;;;;;;5073220;28;20035;-49
2022/05/13 07:58:34;;;;;;;2.03;1.83;;;;;;;;;;5072999;28;20551;-52
2022/05/13 08:01:00;;;;;;;1.50;1.40;;;;;;;;;;5072923;28;20170;-52
2022/05/13 08:03:26;;;;;;;3.72;2.47;;;;;;;;;;5072813;28;20135;-51
2022/05/13 08:05:53;;;;;;;4.03;2.40;;;;;;;;;;5072877;28;20024;-50
2022/05/13 08:08:26;;;;;;;5.70;2.33;;;;;;;;;;5073026;28;20036;-51
2022/05/13 08:10:55;;;;;;;3.90;2.08;;;;;;;;;;5072887;28;20058;-53
2022/05/13 08:13:22;;;;;;;6.43;2.47;;;;;;;;;;5072621;28;20078;-54
2022/05/13 08:15:48;;;;;;;5.53;2.90;;;;;;;;;;5072755;28;20032;-57
2022/05/13 08:18:15;;;;;;;3.00;1.92;;;;;;;;;;5072766;28;20028;-55
2022/05/13 08:20:41;;;;;;;2.90;1.90;;;;;;;;;;5072937;28;20362;-54
2022/05/13 08:23:07;;;;;;;2.75;2.13;;;;;;;;;;5072853;28;20380;-51
2022/05/13 08:25:32;;;;;;;2.75;2.45;;;;;;;;;;5072309;28;20016;-55
2022/05/13 08:27:58;;;;;;;5.00;2.75;;;;;;;;;;5072569;28;20043;-56
2022/05/13 08:30:24;;;;;;;2.58;2.33;;;;;;;;;;5072326;28;20426;-55
2022/05/13 08:32:49;;;;;;;3.22;2.92;;;;;;;;;;5072684;28;20544;-56
2022/05/13 08:35:16;;;;;;;3.90;2.60;;;;;;;;;;5054555;28;20389;-55
2022/05/13 08:37:50;;;;;;;2.90;2.60;;;;;;;;;;5072197;28;20753;-55
2022/05/13 08:40:43;;;;;;;2.85;2.33;;;;;;;;;;5072409;28;20029;-51
2022/05/13 08:43:13;;;;;;;4.22;2.90;;;;;;;;;;5072596;28;20373;-50
2022/05/13 08:45:40;;;;;;;6.75;4.40;;;;;;;;;;5071867;28;20113;-54
2022/05/13 08:48:08;;;;;;;6.25;3.70;;;;;;;;;;5072234;28;20045;-55
2022/05/13 08:51:03;;;;;;;2.13;1.92;;;;;;;;;;5071968;28;20031;-53
2022/05/13 08:53:41;;;;;;;3.22;2.60;;;;;;;;;;5072231;28;20028;-52
2022/05/13 08:56:10;;;;;;;6.18;4.53;;;;;;;;;;5072132;28;20337;-57
2022/05/13 08:58:57;;;;;;;10.43;4.43;;;;;;;;;;5053782;28;20124;-56
2022/05/13 09:01:28;;;;;;;3.60;3.17;;;;;;;;;;5072034;28;20228;-57
2022/05/13 09:04:02;;;;;;;3.25;2.28;;;;;;;;;;5071672;28;20044;-57
2022/05/13 09:06:36;;;;;;;2.60;2.38;;;;;;;;;;5071874;28;20024;-55
2022/05/13 09:09:03;;;;;;;5.25;3.60;;;;;;;;;;5071239;28;20484;-55
2022/05/13 09:11:37;;;;;;;10.30;5.22;;;;;;;;;;5071933;28;20025;-58
2022/05/13 09:14:26;;;;;;;8.70;3.90;;;;;;;;;;5071704;28;20048;-53
2022/05/13 09:17:21;;;;;;;8.18;4.32;;;;;;;;;;5071502;28;20032;-53
2022/05/13 09:19:55;;;;;;;6.72;3.50;;;;;;;;;;5053999;28;20127;-56
2022/05/13 09:22:20;;;;;;;3.13;2.63;;;;;;;;;;5071653;28;20025;-57
2022/05/13 09:24:46;;;;;;;1.70;1.58;;;;;;;;;;5071569;28;20357;-53
2022/05/13 09:27:12;;;;;;;2.75;2.50;;;;;;;;;;5070588;28;20131;-56
2022/05/13 09:29:46;;;;;;;6.25;2.70;;;;;;;;;;5071346;28;20023;-56
2022/05/13 09:32:15;;;;;;;3.08;2.50;;;;;;;;;;5071038;28;20357;-56
2022/05/13 09:35:05;;;;;;;4.93;2.60;;;;;;;;;;5071348;28;20032;-57
2022/05/13 09:37:38;;;;;;;3.17;2.58;;;;;;;;;;5071209;28;20044;-55
2022/05/13 09:40:09;;;;;;;22.55;4.15;;;;;;;;;;5071157;28;20111;-56
2022/05/13 09:42:46;;;;;;;3.42;3.13;;;;;;;;;;5071067;28;20077;-48
2022/05/13 09:45:28;;;;;;;10.25;5.55;;;;;;;;;;5070956;28;20123;-51
2022/05/13 09:48:05;;;;;;;7.15;3.97;;;;;;;;;;5071221;28;20036;-56
2022/05/13 09:50:38;;;;;;;14.77;5.57;;;;;;;;;;5071024;28;20064;-57
2022/05/13 09:53:29;;;;;;;3.20;2.50;;;;;;;;;;5070959;28;20039;-55
2022/05/13 09:55:58;;;;;;;5.65;3.72;;;;;;;;;;5069959;28;20657;-52
2022/05/13 09:58:28;;;;;;;17.80;4.97;;;;;;;;;;5070453;28;20480;-50
2022/05/13 10:00:58;;;;;;;5.78;3.28;;;;;;;;;;5070628;28;20064;-54
2022/05/13 10:03:29;;;;;;;2.15;1.98;;;;;;;;;;5070942;28;20041;-56
2022/05/13 10:06:10;;;;;;;2.30;2.10;;;;;;;;;;5071522;28;20082;-55
2022/05/13 10:08:38;;;;;;;2.13;2.03;;;;;;;;;;5070885;28;20040;-51
2022/05/13 10:13:58;;;;;;;5.30;2.30;;;;;;;;;;5072709;28;20439;-51
2022/05/13 10:16:47;;;;;;;2.60;2.40;;;;;;;;;;5072624;28;20028;-53
2022/05/13 10:19:34;;;;;;;3.28;2.22;;;;;;;;;;5071480;28;20036;-51
2022/05/13 10:22:21;;;;;;;4.80;2.50;;;;;;;;;;5072585;28;20440;-44
2022/05/13 10:24:59;;;;;;;2.40;2.20;;;;;;;;;;5072334;28;20035;-53
2022/05/13 10:28:04;;;;;;;3.47;2.60;;;;;;;;;;5072170;28;20649;-47
2022/05/13 10:30:41;;;;;;;2.63;2.42;;;;;;;;;;4974310;28;20027;-49
2022/05/13 10:33:16;;;;;;;2.60;2.40;;;;;;;;;;5064191;28;20033;-51
2022/05/13 10:35:59;;;;;;;6.50;2.55;;;;;;;;;;5072163;28;20056;-49
2022/05/13 10:38:43;;;;;;;4.05;2.50;;;;;;;;;;5072423;28;20098;-51
2022/05/13 10:41:20;;;;;;;3.38;2.50;;;;;;;;;;5072011;28;20082;-49
2022/05/13 10:44:07;;;;;;;2.60;2.28;;;;;;;;;;5072377;28;20051;-50
2022/05/13 10:46:44;;;;;;;8.43;2.50;;;;;;;;;;5072368;28;20032;-49
2022/05/13 10:49:12;;;;;;;5.13;2.60;;;;;;;;;;5071942;28;20058;-49
2022/05/13 10:51:37;;;;;;;6.15;2.50;;;;;;;;;;5072341;28;20025;-52
2022/05/13 10:54:06;;;;;;;2.90;2.42;;;;;;;;;;5072164;28;20040;-50
2022/05/13 10:56:40;;;;;;;3.75;2.30;;;;;;;;;;5072267;28;20036;-51
2022/05/13 10:59:24;;;;;;;4.93;2.58;;;;;;;;;;5072211;28;20035;-46
2022/05/13 11:02:04;;;;;;;3.88;3.45;;;;;;;;;;5071962;28;20020;-49
2022/05/13 11:04:52;;;;;;;5.40;3.30;;;;;;;;;;5071596;28;20485;-54
2022/05/13 11:07:28;;;;;;;3.70;3.00;;;;;;;;;;5071970;28;20036;-51
2022/05/13 11:10:12;;;;;;;7.25;3.30;;;;;;;;;;5071710;28;20522;-51
2022/05/13 11:13:00;;;;;;;7.38;4.65;;;;;;;;;;5071996;28;20052;-50
2022/05/13 11:15:37;;;;;;;2.50;2.30;;;;;;;;;;5071801;28;20480;-50
2022/05/13 11:18:16;;;;;;;8.07;4.13;;;;;;;;;;5053682;28;20411;-51
2022/05/13 11:20:55;;;;;;;9.68;3.10;;;;;;;;;;5072101;28;20031;-51
2022/05/13 11:23:28;;;;;;;7.45;3.78;;;;;;;;;;5075370;28;20029;-50
2022/05/13 11:26:19;;;;;;;9.68;5.40;;;;;;;;;;5075575;28;20020;-54
2022/05/13 11:29:07;;;;;;;10.00;4.53;;;;;;;;;;5075472;28;20036;-54
2022/05/13 11:31:36;;;;;;;8.63;3.88;;;;;;;;;;5075401;28;20043;-54
2022/05/13 11:34:13;;;;;;;3.53;3.05;;;;;;;;;;5075390;28;20027;-48
2022/05/13 11:36:58;;;;;;;8.48;3.42;;;;;;;;;;5075095;28;20025;-50
2022/05/13 11:39:36;;;;;;;9.02;5.65;;;;;;;;;;5057279;28;20384;-54
2022/05/13 11:42:32;;;;;;;11.32;3.95;;;;;;;;;;5074979;28;20511;-54
2022/05/13 11:45:22;;;;;;;12.35;4.90;;;;;;;;;;5074901;28;20025;-52
2022/05/13 11:47:56;;;;;;;13.10;6.38;;;;;;;;;;5074662;28;20496;-50
2022/05/13 11:50:31;;;;;;;10.70;4.18;;;;;;;;;;5075155;28;20357;-50
2022/05/13 11:52:59;;;;;;;9.07;3.33;;;;;;;;;;5074736;28;20082;-53
2022/05/13 11:55:41;;;;;;;9.30;4.72;;;;;;;;;;5074727;28;20059;-53
2022/05/13 11:58:08;;;;;;;6.00;3.30;;;;;;;;;;5074975;28;20036;-48
2022/05/13 12:00:35;;;;;;;8.50;2.97;;;;;;;;;;5074896;28;20082;-48
2022/05/13 12:03:03;;;;;;;6.47;2.40;;;;;;;;;;5074529;28;20052;-48
2022/05/13 12:05:32;;;;;;;10.37;2.37;;;;;;;;;;5074852;28;20027;-51
2022/05/13 12:08:00;;;;;;;7.37;2.30;;;;;;;;;;5074437;28;20040;-44
2022/05/13 12:11:01;;;;;;;10.05;2.17;;;;;;;;;;5074461;28;20043;-51
2022/05/13 12:13:29;;;;;;;3.03;2.20;;;;;;;;;;5005584;28;20543;-48
2022/05/13 12:16:04;;;;;;;3.45;2.20;;;;;;;;;;5074356;28;20039;-50
2022/05/13 12:18:34;;;;;;;5.10;2.00;;;;;;;;;;5074267;28;20048;-45
2022/05/13 12:21:09;;;;;;;5.20;2.83;;;;;;;;;;5074349;28;20043;-50
2022/05/13 12:23:50;;;;;;;13.25;3.63;;;;;;;;;;5074397;28;20020;-45
2022/05/13 12:26:43;;;;;;;6.63;4.20;;;;;;;;;;5074380;28;20039;-47
2022/05/13 12:29:32;;;;;;;7.75;2.92;;;;;;;;;;5073794;28;20480;-51
2022/05/13 12:31:57;;;;;;;7.80;3.58;;;;;;;;;;5073460;28;20526;-49
2022/05/13 12:40:01;;;;;;;6.10;3.13;;;;;;;;;;5074099;28;20137;-49
2022/05/13 12:42:41;;;;;;;8.07;4.13;;;;;;;;;;5073823;28;20033;-49
2022/05/13 12:45:12;;;;;;;7.55;3.90;;;;;;;;;;5073634;28;20028;-50
2022/05/13 12:48:08;;;;;;;4.35;2.80;;;;;;;;;;5056177;28;20031;-50
2022/05/13 12:50:39;;;;;;;5.57;3.58;;;;;;;;;;5073575;28;20492;-50
2022/05/13 12:53:29;;;;;;;3.15;1.90;;;;;;;;;;5073916;28;20137;-51
2022/05/13 12:56:10;;;;;;;4.53;2.45;;;;;;;;;;5073801;28;20027;-51
2022/05/13 12:58:39;;;;;;;2.65;2.00;;;;;;;;;;5073747;28;20513;-49
2022/05/13 13:01:05;;;;;;;3.38;2.03;;;;;;;;;;5073578;28;20025;-49
2022/05/13 13:03:38;;;;;;;5.32;3.05;;;;;;;;;;5073298;28;20040;-47
2022/05/13 13:06:16;;;;;;;3.75;2.72;;;;;;;;;;5073517;28;20066;-51
2022/05/13 13:08:43;;;;;;;3.70;2.10;;;;;;;;;;5073529;28;20044;-48
2022/05/13 13:11:34;;;;;;;2.90;1.92;;;;;;;;;;5073514;28;20152;-46
2022/05/13 13:14:02;;;;;;;5.28;3.38;;;;;;;;;;5073445;28;20065;-49
2022/05/13 13:16:36;;;;;;;11.57;3.05;;;;;;;;;;5073373;28;20055;-47
2022/05/13 13:19:09;;;;;;;10.98;3.20;;;;;;;;;;5073287;28;20047;-46
2022/05/13 13:21:34;;;;;;;3.97;3.08;;;;;;;;;;5073311;28;20376;-48
2022/05/13 13:24:00;;;;;;;5.35;3.17;;;;;;;;;;5072906;28;20032;-48
2022/05/13 13:26:26;;;;;;;6.72;3.25;;;;;;;;;;5073157;28;20047;-46
2022/05/13 13:28:53;;;;;;;4.32;1.83;;;;;;;;;;5072925;28;20490;-48
2022/05/13 13:31:28;;;;;;;2.10;1.52;;;;;;;;;;5073036;28;20029;-48
2022/05/13 13:33:55;;;;;;;2.00;1.90;;;;;;;;;;5072775;28;20020;-47
2022/05/13 13:36:26;;;;;;;6.00;2.42;;;;;;;;;;5073049;28;20446;-44
2022/05/13 13:39:01;;;;;;;5.55;3.47;;;;;;;;;;5073014;28;20037;-45
2022/05/13 13:41:33;;;;;;;16.50;4.85;;;;;;;;;;5072985;28;20020;-47
2022/05/13 13:44:06;;;;;;;11.20;4.65;;;;;;;;;;5072153;28;20029;-48
2022/05/13 13:46:44;;;;;;;37.03;6.78;;;;;;;;;;5072592;28;20074;-48
2022/05/13 13:49:18;;;;;;;19.77;6.30;;;;;;;;;;5072835;28;20146;-47
2022/05/13 13:51:53;;;;;;;8.15;5.10;;;;;;;;;;5072619;28;20065;-47
2022/05/13 13:54:32;;;;;;;34.20;4.78;;;;;;;;;;5072645;28;20024;-47
2022/05/13 13:57:05;;;;;;;11.85;5.05;;;;;;;;;;5072721;28;20024;-44
2022/05/13 13:59:37;;;;;;;23.83;4.60;;;;;;;;;;5072539;28;20202;-44
2022/05/13 14:02:03;;;;;;;10.80;3.55;;;;;;;;;;5072628;28;20081;-44
2022/05/13 14:04:29;;;;;;;8.52;2.97;;;;;;;;;;5072397;28;20052;-44
2022/05/13 14:06:58;;;;;;;25.50;3.50;;;;;;;;;;5072758;28;20028;-44
2022/05/13 14:09:34;;;;;;;4.53;2.40;;;;;;;;;;5072438;28;20039;-48
2022/05/13 14:12:01;;;;;;;5.70;3.25;;;;;;;;;;5072404;28;20055;-45
2022/05/13 14:14:28;;;;;;;3.90;2.50;;;;;;;;;;5072214;28;20031;-45
2022/05/13 14:17:05;;;;;;;9.50;2.50;;;;;;;;;;5054478;28;20358;-48
2022/05/13 14:19:56;;;;;;;4.85;2.35;;;;;;;;;;5072244;28;20035;-48
2022/05/13 14:22:22;;;;;;;7.40;2.30;;;;;;;;;;5058136;28;20392;-45
2022/05/13 14:25:00;;;;;;;4.68;2.30;;;;;;;;;;5072585;28;20028;-45
2022/05/13 14:27:27;;;;;;;5.80;2.47;;;;;;;;;;5072487;28;20035;-47
2022/05/13 14:30:08;;;;;;;3.00;2.20;;;;;;;;;;5072459;28;20350;-45
2022/05/13 14:32:40;;;;;;;3.63;2.40;;;;;;;;;;5072215;28;20026;-44
2022/05/13 14:35:07;;;;;;;2.88;2.05;;;;;;;;;;5072255;28;20029;-43
2022/05/13 14:37:39;;;;;;;3.72;2.00;;;;;;;;;;5072141;28;20056;-46
2022/05/13 14:40:19;;;;;;;3.50;2.20;;;;;;;;;;5072074;28;20064;-45
2022/05/13 14:42:49;;;;;;;30.23;3.78;;;;;;;;;;5072441;28;20025;-47
2022/05/13 14:45:26;;;;;;;4.97;2.03;;;;;;;;;;5065148;28;20104;-46
2022/05/13 14:48:08;;;;;;;3.33;1.90;;;;;;;;;;5070734;28;20075;-46
2022/05/13 14:50:37;;;;;;;3.50;1.95;;;;;;;;;;5070361;28;20698;-46
2022/05/13 14:53:17;;;;;;;4.90;1.93;;;;;;;;;;5070438;28;20120;-46
2022/05/13 14:55:48;;;;;;;2.63;2.00;;;;;;;;;;5072036;28;20038;-44
2022/05/13 14:58:25;;;;;;;2.83;1.83;;;;;;;;;;5074312;28;20040;-47
2022/05/13 15:00:54;;;;;;;3.28;2.08;;;;;;;;;;5074417;28;20028;-44
2022/05/13 15:03:31;;;;;;;3.65;2.17;;;;;;;;;;5073991;28;20048;-43
2022/05/13 15:05:57;;;;;;;5.88;2.28;;;;;;;;;;5074473;28;20036;-45
2022/05/13 15:08:30;;;;;;;3.45;2.40;;;;;;;;;;5074280;28;20056;-45
2022/05/13 15:10:56;;;;;;;2.25;1.98;;;;;;;;;;5073597;28;20036;-44
2022/05/13 15:13:24;;;;;;;4.97;2.13;;;;;;;;;;5073896;28;20538;-43
2022/05/13 15:15:49;;;;;;;6.88;2.40;;;;;;;;;;5074128;28;20524;-43
2022/05/13 15:18:17;;;;;;;4.13;2.30;;;;;;;;;;5073268;28;20147;-45
2022/05/13 15:20:43;;;;;;;3.47;2.03;;;;;;;;;;5073751;28;20048;-48
2022/05/13 15:23:09;;;;;;;5.35;2.72;;;;;;;;;;5074069;28;20417;-44
2022/05/13 15:25:40;;;;;;;5.97;2.30;;;;;;;;;;5074013;28;20055;-47
2022/05/13 15:28:06;;;;;;;5.97;2.00;;;;;;;;;;5073538;28;20549;-49
2022/05/13 15:30:31;;;;;;;6.47;1.90;;;;;;;;;;5073967;28;20032;-47